sensor_id;sensor_type;location;lat;lon;timestamp;P1;durP1;ratioP1;P2;durP2;ratioP2
74821;SDS011;63353;48.702;8.884;2023-04-06T00:02:32;18.27;;;11.60;;
74821;SDS011;63353;48.702;8.884;2023-04-06T00:05:31;21.27;;;12.43;;
74821;SDS011;63353;48.702;8.884;2023-04-06T00:08:00;20.37;;;11.77;;
74821;SDS011;63353;48.702;8.884;2023-04-06T00:10:28;20.40;;;11.93;;
74821;SDS011;63353;48.702;8.884;2023-04-06T00:12:58;18.77;;;12.20;;
74821;SDS011;63353;48.702;8.884;2023-04-06T00:15:24;20.97;;;12.20;;
74821;SDS011;63353;48.702;8.884;2023-04-06T00:17:53;22.17;;;11.73;;
74821;SDS011;63353;48.702;8.884;2023-04-06T00:20:28;22.10;;;12.37;;
74821;SDS011;63353;48.702;8.884;2023-04-06T00:22:56;22.27;;;12.07;;
74821;SDS011;63353;48.702;8.884;2023-04-06T00:25:22;25.53;;;13.37;;
74821;SDS011;63353;48.702;8.884;2023-04-06T00:27:48;21.03;;;12.37;;
74821;SDS011;63353;48.702;8.884;2023-04-06T00:30:16;25.10;;;12.53;;
74821;SDS011;63353;48.702;8.884;2023-04-06T00:32:42;21.83;;;12.80;;
74821;SDS011;63353;48.702;8.884;2023-04-06T00:35:10;22.77;;;11.93;;
74821;SDS011;63353;48.702;8.884;2023-04-06T00:37:48;20.57;;;12.23;;
74821;SDS011;63353;48.702;8.884;2023-04-06T00:40:22;21.80;;;12.50;;
74821;SDS011;63353;48.702;8.884;2023-04-06T00:42:48;20.23;;;12.13;;
74821;SDS011;63353;48.702;8.884;2023-04-06T00:45:14;21.77;;;12.50;;
74821;SDS011;63353;48.702;8.884;2023-04-06T00:47:40;20.73;;;11.73;;
74821;SDS011;63353;48.702;8.884;2023-04-06T00:50:15;20.77;;;11.83;;
74821;SDS011;63353;48.702;8.884;2023-04-06T00:52:44;20.00;;;12.27;;
74821;SDS011;63353;48.702;8.884;2023-04-06T00:55:10;18.57;;;11.37;;
74821;SDS011;63353;48.702;8.884;2023-04-06T00:57:42;20.90;;;12.73;;
74821;SDS011;63353;48.702;8.884;2023-04-06T01:00:08;22.97;;;12.30;;
74821;SDS011;63353;48.702;8.884;2023-04-06T01:02:50;21.93;;;11.67;;
74821;SDS011;63353;48.702;8.884;2023-04-06T01:05:15;19.37;;;11.30;;
74821;SDS011;63353;48.702;8.884;2023-04-06T01:07:41;17.87;;;10.97;;
74821;SDS011;63353;48.702;8.884;2023-04-06T01:10:10;16.97;;;10.77;;
74821;SDS011;63353;48.702;8.884;2023-04-06T01:12:59;19.67;;;11.17;;
74821;SDS011;63353;48.702;8.884;2023-04-06T01:15:30;20.43;;;11.83;;
74821;SDS011;63353;48.702;8.884;2023-04-06T01:17:58;19.03;;;11.00;;
74821;SDS011;63353;48.702;8.884;2023-04-06T01:20:24;19.30;;;11.50;;
74821;SDS011;63353;48.702;8.884;2023-04-06T01:22:59;18.10;;;11.57;;
74821;SDS011;63353;48.702;8.884;2023-04-06T01:25:27;19.03;;;10.90;;
74821;SDS011;63353;48.702;8.884;2023-04-06T01:27:53;21.03;;;11.67;;
74821;SDS011;63353;48.702;8.884;2023-04-06T01:30:18;18.40;;;12.00;;
74821;SDS011;63353;48.702;8.884;2023-04-06T01:32:56;21.93;;;11.40;;
74821;SDS011;63353;48.702;8.884;2023-04-06T01:35:30;18.70;;;11.70;;
74821;SDS011;63353;48.702;8.884;2023-04-06T01:37:56;20.03;;;11.10;;
74821;SDS011;63353;48.702;8.884;2023-04-06T01:40:21;18.13;;;10.93;;
74821;SDS011;63353;48.702;8.884;2023-04-06T01:42:47;22.23;;;11.17;;
74821;SDS011;63353;48.702;8.884;2023-04-06T01:45:25;19.20;;;10.93;;
74821;SDS011;63353;48.702;8.884;2023-04-06T01:47:51;17.30;;;10.30;;
74821;SDS011;63353;48.702;8.884;2023-04-06T01:50:24;20.90;;;10.73;;
74821;SDS011;63353;48.702;8.884;2023-04-06T01:52:53;18.33;;;10.97;;
74821;SDS011;63353;48.702;8.884;2023-04-06T01:55:18;20.03;;;11.03;;
74821;SDS011;63353;48.702;8.884;2023-04-06T01:57:53;15.13;;;10.13;;
74821;SDS011;63353;48.702;8.884;2023-04-06T02:00:31;19.17;;;11.13;;
74821;SDS011;63353;48.702;8.884;2023-04-06T02:02:56;17.83;;;10.43;;
74821;SDS011;63353;48.702;8.884;2023-04-06T02:05:22;16.47;;;10.30;;
74821;SDS011;63353;48.702;8.884;2023-04-06T02:07:48;16.07;;;10.80;;
74821;SDS011;63353;48.702;8.884;2023-04-06T02:10:20;17.47;;;10.53;;
74821;SDS011;63353;48.702;8.884;2023-04-06T02:12:46;15.53;;;10.27;;
74821;SDS011;63353;48.702;8.884;2023-04-06T02:15:24;17.20;;;10.20;;
74821;SDS011;63353;48.702;8.884;2023-04-06T02:17:58;17.20;;;10.20;;
74821;SDS011;63353;48.702;8.884;2023-04-06T02:20:34;17.87;;;10.13;;
74821;SDS011;63353;48.702;8.884;2023-04-06T02:23:02;18.20;;;11.07;;
74821;SDS011;63353;48.702;8.884;2023-04-06T02:25:31;18.53;;;10.93;;
74821;SDS011;63353;48.702;8.884;2023-04-06T02:30:44;17.13;;;10.77;;
74821;SDS011;63353;48.702;8.884;2023-04-06T02:33:19;18.40;;;10.30;;
74821;SDS011;63353;48.702;8.884;2023-04-06T02:35:50;16.17;;;10.23;;
74821;SDS011;63353;48.702;8.884;2023-04-06T02:38:16;17.73;;;10.20;;
74821;SDS011;63353;48.702;8.884;2023-04-06T02:40:44;16.47;;;10.70;;
74821;SDS011;63353;48.702;8.884;2023-04-06T02:43:22;18.90;;;10.80;;
74821;SDS011;63353;48.702;8.884;2023-04-06T02:45:54;18.27;;;10.33;;
74821;SDS011;63353;48.702;8.884;2023-04-06T02:48:20;17.20;;;10.37;;
74821;SDS011;63353;48.702;8.884;2023-04-06T02:51:01;17.43;;;10.17;;
74821;SDS011;63353;48.702;8.884;2023-04-06T02:53:26;18.63;;;10.47;;
74821;SDS011;63353;48.702;8.884;2023-04-06T02:55:52;16.27;;;9.83;;
74821;SDS011;63353;48.702;8.884;2023-04-06T02:58:24;17.27;;;9.93;;
74821;SDS011;63353;48.702;8.884;2023-04-06T03:00:49;18.63;;;10.40;;
74821;SDS011;63353;48.702;8.884;2023-04-06T03:03:18;16.27;;;10.30;;
74821;SDS011;63353;48.702;8.884;2023-04-06T03:05:43;15.57;;;9.60;;
74821;SDS011;63353;48.702;8.884;2023-04-06T03:08:28;16.80;;;10.13;;
74821;SDS011;63353;48.702;8.884;2023-04-06T03:10:57;17.00;;;10.50;;
74821;SDS011;63353;48.702;8.884;2023-04-06T03:13:29;16.30;;;9.97;;
74821;SDS011;63353;48.702;8.884;2023-04-06T03:15:57;18.63;;;10.37;;
74821;SDS011;63353;48.702;8.884;2023-04-06T03:18:26;18.43;;;11.10;;
74821;SDS011;63353;48.702;8.884;2023-04-06T03:20:52;17.47;;;10.57;;
74821;SDS011;63353;48.702;8.884;2023-04-06T03:23:32;16.43;;;10.13;;
74821;SDS011;63353;48.702;8.884;2023-04-06T03:26:03;17.47;;;10.00;;
74821;SDS011;63353;48.702;8.884;2023-04-06T03:28:29;19.27;;;11.23;;
74821;SDS011;63353;48.702;8.884;2023-04-06T03:31:01;19.33;;;10.53;;
74821;SDS011;63353;48.702;8.884;2023-04-06T03:33:30;17.73;;;9.83;;
74821;SDS011;63353;48.702;8.884;2023-04-06T03:36:01;14.80;;;10.00;;
74821;SDS011;63353;48.702;8.884;2023-04-06T03:38:27;16.53;;;10.23;;
74821;SDS011;63353;48.702;8.884;2023-04-06T03:40:53;18.87;;;10.20;;
74821;SDS011;63353;48.702;8.884;2023-04-06T03:43:21;18.63;;;10.47;;
74821;SDS011;63353;48.702;8.884;2023-04-06T03:45:47;16.00;;;9.73;;
74821;SDS011;63353;48.702;8.884;2023-04-06T03:48:19;19.20;;;11.10;;
74821;SDS011;63353;48.702;8.884;2023-04-06T03:50:45;17.50;;;10.10;;
74821;SDS011;63353;48.702;8.884;2023-04-06T03:53:11;16.13;;;9.90;;
74821;SDS011;63353;48.702;8.884;2023-04-06T03:55:48;16.90;;;9.83;;
74821;SDS011;63353;48.702;8.884;2023-04-06T03:58:20;16.73;;;9.70;;
74821;SDS011;63353;48.702;8.884;2023-04-06T04:00:54;18.13;;;10.60;;
74821;SDS011;63353;48.702;8.884;2023-04-06T04:03:23;15.57;;;9.63;;
74821;SDS011;63353;48.702;8.884;2023-04-06T04:05:51;17.50;;;10.33;;
74821;SDS011;63353;48.702;8.884;2023-04-06T04:08:22;17.50;;;10.03;;
74821;SDS011;63353;48.702;8.884;2023-04-06T04:10:49;16.90;;;10.13;;
74821;SDS011;63353;48.702;8.884;2023-04-06T04:13:16;16.97;;;10.33;;
74821;SDS011;63353;48.702;8.884;2023-04-06T04:15:42;16.23;;;9.20;;
74821;SDS011;63353;48.702;8.884;2023-04-06T04:18:23;16.80;;;10.10;;
74821;SDS011;63353;48.702;8.884;2023-04-06T04:20:52;16.57;;;10.23;;
74821;SDS011;63353;48.702;8.884;2023-04-06T04:23:21;17.97;;;10.27;;
74821;SDS011;63353;48.702;8.884;2023-04-06T04:25:55;17.20;;;10.20;;
74821;SDS011;63353;48.702;8.884;2023-04-06T04:28:27;20.03;;;10.07;;
74821;SDS011;63353;48.702;8.884;2023-04-06T04:30:58;18.30;;;11.77;;
74821;SDS011;63353;48.702;8.884;2023-04-06T04:33:24;18.93;;;10.10;;
74821;SDS011;63353;48.702;8.884;2023-04-06T04:35:50;16.33;;;10.00;;
74821;SDS011;63353;48.702;8.884;2023-04-06T04:38:28;21.77;;;13.40;;
74821;SDS011;63353;48.702;8.884;2023-04-06T04:40:54;22.70;;;15.93;;
74821;SDS011;63353;48.702;8.884;2023-04-06T04:43:25;21.57;;;13.43;;
74821;SDS011;63353;48.702;8.884;2023-04-06T04:45:51;16.27;;;10.23;;
74821;SDS011;63353;48.702;8.884;2023-04-06T04:48:17;19.57;;;11.87;;
74821;SDS011;63353;48.702;8.884;2023-04-06T04:50:49;16.73;;;10.10;;
74821;SDS011;63353;48.702;8.884;2023-04-06T04:53:20;15.73;;;9.50;;
74821;SDS011;63353;48.702;8.884;2023-04-06T04:55:52;18.67;;;10.23;;
74821;SDS011;63353;48.702;8.884;2023-04-06T04:58:18;18.60;;;10.20;;
74821;SDS011;63353;48.702;8.884;2023-04-06T05:00:59;16.40;;;10.17;;
74821;SDS011;63353;48.702;8.884;2023-04-06T05:03:25;16.33;;;10.53;;
74821;SDS011;63353;48.702;8.884;2023-04-06T05:05:57;30.53;;;11.67;;
74821;SDS011;63353;48.702;8.884;2023-04-06T05:08:23;18.67;;;10.47;;
74821;SDS011;63353;48.702;8.884;2023-04-06T05:10:49;22.90;;;12.80;;
74821;SDS011;63353;48.702;8.884;2023-04-06T05:13:16;18.00;;;11.47;;
74821;SDS011;63353;48.702;8.884;2023-04-06T05:15:41;20.33;;;11.50;;
74821;SDS011;63353;48.702;8.884;2023-04-06T05:18:08;19.87;;;12.37;;
74821;SDS011;63353;48.702;8.884;2023-04-06T05:20:34;18.57;;;11.67;;
74821;SDS011;63353;48.702;8.884;2023-04-06T05:23:01;16.63;;;10.33;;
74821;SDS011;63353;48.702;8.884;2023-04-06T05:25:29;16.27;;;10.23;;
74821;SDS011;63353;48.702;8.884;2023-04-06T05:27:55;17.07;;;10.33;;
74821;SDS011;63353;48.702;8.884;2023-04-06T05:30:21;15.70;;;9.97;;
74821;SDS011;63353;48.702;8.884;2023-04-06T05:33:02;20.37;;;9.87;;
74821;SDS011;63353;48.702;8.884;2023-04-06T05:35:30;18.00;;;10.20;;
74821;SDS011;63353;48.702;8.884;2023-04-06T05:37:59;18.00;;;10.70;;
74821;SDS011;63353;48.702;8.884;2023-04-06T05:40:25;18.87;;;9.87;;
74821;SDS011;63353;48.702;8.884;2023-04-06T05:42:53;17.53;;;10.63;;
74821;SDS011;63353;48.702;8.884;2023-04-06T05:45:25;18.43;;;10.10;;
74821;SDS011;63353;48.702;8.884;2023-04-06T05:47:57;18.20;;;10.70;;
74821;SDS011;63353;48.702;8.884;2023-04-06T05:50:22;17.30;;;10.17;;
74821;SDS011;63353;48.702;8.884;2023-04-06T05:53:03;17.97;;;10.43;;
74821;SDS011;63353;48.702;8.884;2023-04-06T05:55:29;15.83;;;10.53;;
74821;SDS011;63353;48.702;8.884;2023-04-06T05:57:55;17.40;;;10.07;;
74821;SDS011;63353;48.702;8.884;2023-04-06T06:00:23;18.33;;;11.00;;
74821;SDS011;63353;48.702;8.884;2023-04-06T06:02:49;17.97;;;10.73;;
74821;SDS011;63353;48.702;8.884;2023-04-06T06:05:15;18.87;;;10.67;;
74821;SDS011;63353;48.702;8.884;2023-04-06T06:07:43;20.77;;;12.07;;
74821;SDS011;63353;48.702;8.884;2023-04-06T06:10:09;20.37;;;12.77;;
74821;SDS011;63353;48.702;8.884;2023-04-06T06:12:35;20.07;;;12.07;;
74821;SDS011;63353;48.702;8.884;2023-04-06T06:15:04;19.50;;;12.90;;
74821;SDS011;63353;48.702;8.884;2023-04-06T06:17:36;20.83;;;13.33;;
74821;SDS011;63353;48.702;8.884;2023-04-06T06:20:04;18.80;;;12.53;;
74821;SDS011;63353;48.702;8.884;2023-04-06T06:22:34;22.63;;;15.27;;
74821;SDS011;63353;48.702;8.884;2023-04-06T06:25:00;35.00;;;22.00;;
74821;SDS011;63353;48.702;8.884;2023-04-06T06:27:25;28.10;;;19.37;;
74821;SDS011;63353;48.702;8.884;2023-04-06T06:29:51;24.20;;;16.90;;
74821;SDS011;63353;48.702;8.884;2023-04-06T06:32:17;23.30;;;15.23;;
74821;SDS011;63353;48.702;8.884;2023-04-06T06:34:43;23.60;;;14.90;;
74821;SDS011;63353;48.702;8.884;2023-04-06T06:37:09;22.43;;;13.23;;
74821;SDS011;63353;48.702;8.884;2023-04-06T06:39:39;21.93;;;14.00;;
74821;SDS011;63353;48.702;8.884;2023-04-06T06:42:05;21.43;;;13.30;;
74821;SDS011;63353;48.702;8.884;2023-04-06T06:44:31;22.90;;;14.93;;
74821;SDS011;63353;48.702;8.884;2023-04-06T06:46:56;24.60;;;16.57;;
74821;SDS011;63353;48.702;8.884;2023-04-06T06:49:31;25.83;;;16.03;;
74821;SDS011;63353;48.702;8.884;2023-04-06T06:51:56;24.93;;;15.40;;
74821;SDS011;63353;48.702;8.884;2023-04-06T06:54:22;22.97;;;14.43;;
74821;SDS011;63353;48.702;8.884;2023-04-06T06:56:48;20.47;;;13.67;;
74821;SDS011;63353;48.702;8.884;2023-04-06T06:59:13;17.93;;;12.80;;
74821;SDS011;63353;48.702;8.884;2023-04-06T07:01:43;19.00;;;12.37;;
74821;SDS011;63353;48.702;8.884;2023-04-06T07:04:09;21.17;;;14.30;;
74821;SDS011;63353;48.702;8.884;2023-04-06T07:06:40;21.13;;;13.57;;
74821;SDS011;63353;48.702;8.884;2023-04-06T07:09:06;17.37;;;11.43;;
74821;SDS011;63353;48.702;8.884;2023-04-06T07:11:32;15.03;;;11.10;;
74821;SDS011;63353;48.702;8.884;2023-04-06T07:14:04;15.67;;;11.43;;
74821;SDS011;63353;48.702;8.884;2023-04-06T07:16:30;17.67;;;11.70;;
74821;SDS011;63353;48.702;8.884;2023-04-06T07:18:58;17.93;;;11.63;;
74821;SDS011;63353;48.702;8.884;2023-04-06T07:21:24;15.33;;;11.07;;
74821;SDS011;63353;48.702;8.884;2023-04-06T07:23:50;14.20;;;10.43;;
74821;SDS011;63353;48.702;8.884;2023-04-06T07:26:15;15.67;;;11.17;;
74821;SDS011;63353;48.702;8.884;2023-04-06T07:28:54;16.83;;;11.00;;
74821;SDS011;63353;48.702;8.884;2023-04-06T07:31:40;18.80;;;11.93;;
74821;SDS011;63353;48.702;8.884;2023-04-06T07:34:06;16.13;;;11.33;;
74821;SDS011;63353;48.702;8.884;2023-04-06T07:36:32;16.53;;;10.80;;
74821;SDS011;63353;48.702;8.884;2023-04-06T07:39:01;18.10;;;12.03;;
74821;SDS011;63353;48.702;8.884;2023-04-06T07:41:29;16.57;;;11.67;;
74821;SDS011;63353;48.702;8.884;2023-04-06T07:43:58;18.93;;;12.47;;
74821;SDS011;63353;48.702;8.884;2023-04-06T07:46:23;16.97;;;12.10;;
74821;SDS011;63353;48.702;8.884;2023-04-06T07:48:50;17.50;;;12.20;;
74821;SDS011;63353;48.702;8.884;2023-04-06T07:51:35;15.43;;;11.97;;
74821;SDS011;63353;48.702;8.884;2023-04-06T07:54:03;17.37;;;11.90;;
74821;SDS011;63353;48.702;8.884;2023-04-06T07:59:13;18.10;;;11.70;;
74821;SDS011;63353;48.702;8.884;2023-04-06T08:01:47;19.23;;;12.53;;
74821;SDS011;63353;48.702;8.884;2023-04-06T08:04:13;16.43;;;12.00;;
74821;SDS011;63353;48.702;8.884;2023-04-06T08:06:51;18.67;;;12.17;;
74821;SDS011;63353;48.702;8.884;2023-04-06T08:09:32;15.80;;;11.80;;
74821;SDS011;63353;48.702;8.884;2023-04-06T08:11:58;16.60;;;11.50;;
74821;SDS011;63353;48.702;8.884;2023-04-06T08:14:26;16.60;;;12.30;;
74821;SDS011;63353;48.702;8.884;2023-04-06T08:17:10;17.73;;;12.97;;
74821;SDS011;63353;48.702;8.884;2023-04-06T08:19:39;15.33;;;11.87;;
74821;SDS011;63353;48.702;8.884;2023-04-06T08:22:21;15.20;;;11.90;;
74821;SDS011;63353;48.702;8.884;2023-04-06T08:24:50;13.17;;;10.77;;
74821;SDS011;63353;48.702;8.884;2023-04-06T08:27:31;13.70;;;11.10;;
74821;SDS011;63353;48.702;8.884;2023-04-06T08:29:56;15.23;;;11.03;;
74821;SDS011;63353;48.702;8.884;2023-04-06T08:32:31;12.30;;;9.03;;
74821;SDS011;63353;48.702;8.884;2023-04-06T08:35:00;13.53;;;9.93;;
74821;SDS011;63353;48.702;8.884;2023-04-06T08:37:26;12.97;;;10.70;;
74821;SDS011;63353;48.702;8.884;2023-04-06T08:39:55;18.43;;;11.90;;
74821;SDS011;63353;48.702;8.884;2023-04-06T08:42:21;15.97;;;11.37;;
74821;SDS011;63353;48.702;8.884;2023-04-06T08:44:49;15.57;;;11.47;;
74821;SDS011;63353;48.702;8.884;2023-04-06T08:50:05;19.63;;;13.63;;
74821;SDS011;63353;48.702;8.884;2023-04-06T08:52:32;15.00;;;11.80;;
74821;SDS011;63353;48.702;8.884;2023-04-06T08:55:02;22.47;;;19.33;;
74821;SDS011;63353;48.702;8.884;2023-04-06T08:57:48;43.83;;;39.43;;
74821;SDS011;63353;48.702;8.884;2023-04-06T09:00:18;19.27;;;15.97;;
74821;SDS011;63353;48.702;8.884;2023-04-06T09:02:45;15.87;;;11.33;;
74821;SDS011;63353;48.702;8.884;2023-04-06T09:05:17;14.70;;;11.10;;
74821;SDS011;63353;48.702;8.884;2023-04-06T09:07:47;15.23;;;11.60;;
74821;SDS011;63353;48.702;8.884;2023-04-06T09:10:22;12.60;;;10.00;;
74821;SDS011;63353;48.702;8.884;2023-04-06T09:12:51;10.53;;;8.80;;
74821;SDS011;63353;48.702;8.884;2023-04-06T09:15:27;11.40;;;8.43;;
74821;SDS011;63353;48.702;8.884;2023-04-06T09:17:52;17.00;;;11.20;;
74821;SDS011;63353;48.702;8.884;2023-04-06T09:20:23;17.63;;;12.97;;
74821;SDS011;63353;48.702;8.884;2023-04-06T09:22:53;14.47;;;10.13;;
74821;SDS011;63353;48.702;8.884;2023-04-06T09:25:21;12.50;;;9.77;;
74821;SDS011;63353;48.702;8.884;2023-04-06T09:27:48;13.57;;;10.57;;
74821;SDS011;63353;48.702;8.884;2023-04-06T09:30:23;16.43;;;11.10;;
74821;SDS011;63353;48.702;8.884;2023-04-06T09:32:50;14.20;;;10.97;;
74821;SDS011;63353;48.702;8.884;2023-04-06T09:35:23;12.07;;;9.27;;
74821;SDS011;63353;48.702;8.884;2023-04-06T09:37:54;12.00;;;9.27;;
74821;SDS011;63353;48.702;8.884;2023-04-06T09:40:23;13.43;;;10.90;;
74821;SDS011;63353;48.702;8.884;2023-04-06T09:42:50;12.67;;;9.20;;
74821;SDS011;63353;48.702;8.884;2023-04-06T09:45:20;12.10;;;9.33;;
74821;SDS011;63353;48.702;8.884;2023-04-06T09:47:46;15.67;;;11.17;;
74821;SDS011;63353;48.702;8.884;2023-04-06T09:50:16;14.80;;;11.23;;
74821;SDS011;63353;48.702;8.884;2023-04-06T09:53:04;12.33;;;9.73;;
74821;SDS011;63353;48.702;8.884;2023-04-06T09:55:34;11.53;;;9.70;;
74821;SDS011;63353;48.702;8.884;2023-04-06T09:58:22;13.20;;;10.13;;
74821;SDS011;63353;48.702;8.884;2023-04-06T10:01:07;12.73;;;10.27;;
74821;SDS011;63353;48.702;8.884;2023-04-06T10:03:48;11.67;;;9.83;;
74821;SDS011;63353;48.702;8.884;2023-04-06T10:06:33;12.63;;;9.87;;
74821;SDS011;63353;48.702;8.884;2023-04-06T10:09:04;11.87;;;9.60;;
74821;SDS011;63353;48.702;8.884;2023-04-06T10:11:33;12.23;;;10.37;;
74821;SDS011;63353;48.702;8.884;2023-04-06T10:14:02;11.70;;;9.57;;
74821;SDS011;63353;48.702;8.884;2023-04-06T10:19:19;13.23;;;10.27;;
74821;SDS011;63353;48.702;8.884;2023-04-06T10:21:50;13.17;;;9.97;;
74821;SDS011;63353;48.702;8.884;2023-04-06T10:27:09;11.30;;;9.20;;
74821;SDS011;63353;48.702;8.884;2023-04-06T10:32:50;11.23;;;9.20;;
74821;SDS011;63353;48.702;8.884;2023-04-06T10:38:34;12.33;;;9.07;;
74821;SDS011;63353;48.702;8.884;2023-04-06T10:41:08;13.00;;;11.70;;
74821;SDS011;63353;48.702;8.884;2023-04-06T10:43:36;11.90;;;9.80;;
74821;SDS011;63353;48.702;8.884;2023-04-06T10:46:04;17.37;;;13.83;;
74821;SDS011;63353;48.702;8.884;2023-04-06T10:51:07;10.50;;;8.50;;
74821;SDS011;63353;48.702;8.884;2023-04-06T10:53:34;12.57;;;9.17;;
74821;SDS011;63353;48.702;8.884;2023-04-06T10:56:03;13.23;;;9.83;;
74821;SDS011;63353;48.702;8.884;2023-04-06T10:58:30;12.80;;;10.50;;
74821;SDS011;63353;48.702;8.884;2023-04-06T11:00:59;12.00;;;9.53;;
74821;SDS011;63353;48.702;8.884;2023-04-06T11:06:20;13.90;;;10.10;;
74821;SDS011;63353;48.702;8.884;2023-04-06T11:08:59;12.17;;;9.43;;
74821;SDS011;63353;48.702;8.884;2023-04-06T11:11:38;10.43;;;8.93;;
74821;SDS011;63353;48.702;8.884;2023-04-06T11:14:04;10.60;;;9.43;;
74821;SDS011;63353;48.702;8.884;2023-04-06T11:16:31;11.37;;;9.67;;
74821;SDS011;63353;48.702;8.884;2023-04-06T11:19:04;12.33;;;10.13;;
74821;SDS011;63353;48.702;8.884;2023-04-06T11:21:38;13.37;;;10.70;;
74821;SDS011;63353;48.702;8.884;2023-04-06T11:24:24;13.50;;;11.80;;
74821;SDS011;63353;48.702;8.884;2023-04-06T11:26:54;11.33;;;9.63;;
74821;SDS011;63353;48.702;8.884;2023-04-06T11:29:21;12.27;;;9.37;;
74821;SDS011;63353;48.702;8.884;2023-04-06T11:31:52;13.13;;;9.87;;
74821;SDS011;63353;48.702;8.884;2023-04-06T11:34:38;11.07;;;9.70;;
74821;SDS011;63353;48.702;8.884;2023-04-06T11:37:11;12.87;;;10.10;;
74821;SDS011;63353;48.702;8.884;2023-04-06T11:39:48;10.60;;;9.23;;
74821;SDS011;63353;48.702;8.884;2023-04-06T11:42:29;10.53;;;9.07;;
74821;SDS011;63353;48.702;8.884;2023-04-06T11:44:58;9.93;;;8.77;;
74821;SDS011;63353;48.702;8.884;2023-04-06T11:47:36;11.20;;;8.93;;
74821;SDS011;63353;48.702;8.884;2023-04-06T11:50:21;9.43;;;8.50;;
74821;SDS011;63353;48.702;8.884;2023-04-06T11:52:58;10.53;;;8.83;;
74821;SDS011;63353;48.702;8.884;2023-04-06T11:55:25;9.23;;;8.30;;
74821;SDS011;63353;48.702;8.884;2023-04-06T11:58:02;9.20;;;7.97;;
74821;SDS011;63353;48.702;8.884;2023-04-06T12:00:28;8.70;;;7.80;;
74821;SDS011;63353;48.702;8.884;2023-04-06T12:03:02;11.00;;;8.50;;
74821;SDS011;63353;48.702;8.884;2023-04-06T12:05:34;8.87;;;7.97;;
74821;SDS011;63353;48.702;8.884;2023-04-06T12:07:59;9.40;;;7.90;;
74821;SDS011;63353;48.702;8.884;2023-04-06T12:10:31;8.87;;;7.97;;
74821;SDS011;63353;48.702;8.884;2023-04-06T12:13:00;9.27;;;7.97;;
74821;SDS011;63353;48.702;8.884;2023-04-06T12:15:28;10.60;;;8.87;;
74821;SDS011;63353;48.702;8.884;2023-04-06T12:18:03;9.33;;;8.13;;
74821;SDS011;63353;48.702;8.884;2023-04-06T12:20:32;9.97;;;8.83;;
74821;SDS011;63353;48.702;8.884;2023-04-06T12:23:03;9.30;;;8.00;;
74821;SDS011;63353;48.702;8.884;2023-04-06T12:25:32;9.87;;;8.47;;
74821;SDS011;63353;48.702;8.884;2023-04-06T12:27:58;11.50;;;8.63;;
74821;SDS011;63353;48.702;8.884;2023-04-06T12:30:23;11.30;;;9.53;;
74821;SDS011;63353;48.702;8.884;2023-04-06T12:32:52;10.87;;;8.40;;
74821;SDS011;63353;48.702;8.884;2023-04-06T12:35:33;9.67;;;8.43;;
74821;SDS011;63353;48.702;8.884;2023-04-06T12:37:58;9.67;;;8.43;;
74821;SDS011;63353;48.702;8.884;2023-04-06T12:40:30;10.50;;;8.47;;
74821;SDS011;63353;48.702;8.884;2023-04-06T12:43:01;9.70;;;8.40;;
74821;SDS011;63353;48.702;8.884;2023-04-06T12:45:32;8.57;;;7.73;;
74821;SDS011;63353;48.702;8.884;2023-04-06T12:48:01;9.80;;;8.37;;
74821;SDS011;63353;48.702;8.884;2023-04-06T12:50:35;9.30;;;8.40;;
74821;SDS011;63353;48.702;8.884;2023-04-06T12:53:01;9.50;;;8.33;;
74821;SDS011;63353;48.702;8.884;2023-04-06T12:55:29;9.23;;;7.97;;
74821;SDS011;63353;48.702;8.884;2023-04-06T12:57:58;9.43;;;8.40;;
74821;SDS011;63353;48.702;8.884;2023-04-06T13:00:23;9.57;;;8.03;;
74821;SDS011;63353;48.702;8.884;2023-04-06T13:02:52;8.90;;;8.00;;
74821;SDS011;63353;48.702;8.884;2023-04-06T13:05:21;8.77;;;7.77;;
74821;SDS011;63353;48.702;8.884;2023-04-06T13:07:52;8.37;;;7.57;;
74821;SDS011;63353;48.702;8.884;2023-04-06T13:10:18;8.83;;;7.87;;
74821;SDS011;63353;48.702;8.884;2023-04-06T13:12:47;8.90;;;8.00;;
74821;SDS011;63353;48.702;8.884;2023-04-06T13:15:13;8.70;;;7.90;;
74821;SDS011;63353;48.702;8.884;2023-04-06T13:17:44;9.00;;;7.97;;
74821;SDS011;63353;48.702;8.884;2023-04-06T13:20:16;10.10;;;8.60;;
74821;SDS011;63353;48.702;8.884;2023-04-06T13:22:42;8.87;;;7.97;;
74821;SDS011;63353;48.702;8.884;2023-04-06T13:25:07;8.53;;;7.70;;
74821;SDS011;63353;48.702;8.884;2023-04-06T13:27:43;9.60;;;8.63;;
74821;SDS011;63353;48.702;8.884;2023-04-06T13:30:23;10.17;;;8.20;;
74821;SDS011;63353;48.702;8.884;2023-04-06T13:32:55;9.23;;;8.23;;
74821;SDS011;63353;48.702;8.884;2023-04-06T13:35:21;9.60;;;8.63;;
74821;SDS011;63353;48.702;8.884;2023-04-06T13:37:47;9.33;;;8.33;;
74821;SDS011;63353;48.702;8.884;2023-04-06T13:40:13;10.33;;;9.30;;
74821;SDS011;63353;48.702;8.884;2023-04-06T13:42:39;8.93;;;8.10;;
74821;SDS011;63353;48.702;8.884;2023-04-06T13:45:06;9.20;;;8.30;;
74821;SDS011;63353;48.702;8.884;2023-04-06T13:47:33;9.37;;;8.17;;
74821;SDS011;63353;48.702;8.884;2023-04-06T13:49:58;8.83;;;7.93;;
74821;SDS011;63353;48.702;8.884;2023-04-06T13:52:43;8.63;;;7.73;;
74821;SDS011;63353;48.702;8.884;2023-04-06T13:55:18;8.47;;;7.57;;
74821;SDS011;63353;48.702;8.884;2023-04-06T13:57:53;9.03;;;8.13;;
74821;SDS011;63353;48.702;8.884;2023-04-06T14:00:24;8.37;;;7.50;;
74821;SDS011;63353;48.702;8.884;2023-04-06T14:02:56;9.87;;;8.00;;
74821;SDS011;63353;48.702;8.884;2023-04-06T14:05:22;11.60;;;8.30;;
74821;SDS011;63353;48.702;8.884;2023-04-06T14:07:48;8.97;;;8.07;;
74821;SDS011;63353;48.702;8.884;2023-04-06T14:10:14;8.50;;;7.60;;
74821;SDS011;63353;48.702;8.884;2023-04-06T14:12:41;10.33;;;8.33;;
74821;SDS011;63353;48.702;8.884;2023-04-06T14:15:08;8.67;;;7.77;;
74821;SDS011;63353;48.702;8.884;2023-04-06T14:17:34;11.47;;;8.80;;
74821;SDS011;63353;48.702;8.884;2023-04-06T14:20:04;9.80;;;8.77;;
74821;SDS011;63353;48.702;8.884;2023-04-06T14:22:31;8.97;;;8.07;;
74821;SDS011;63353;48.702;8.884;2023-04-06T14:25:02;9.67;;;8.67;;
74821;SDS011;63353;48.702;8.884;2023-04-06T14:27:31;8.57;;;7.67;;
74821;SDS011;63353;48.702;8.884;2023-04-06T14:29:57;9.00;;;8.10;;
74821;SDS011;63353;48.702;8.884;2023-04-06T14:32:22;8.53;;;7.73;;
74821;SDS011;63353;48.702;8.884;2023-04-06T14:34:49;10.00;;;7.53;;
74821;SDS011;63353;48.702;8.884;2023-04-06T14:37:15;7.77;;;6.97;;
74821;SDS011;63353;48.702;8.884;2023-04-06T14:39:43;10.83;;;7.50;;
74821;SDS011;63353;48.702;8.884;2023-04-06T14:42:09;8.83;;;7.63;;
74821;SDS011;63353;48.702;8.884;2023-04-06T14:44:38;10.27;;;7.97;;
74821;SDS011;63353;48.702;8.884;2023-04-06T14:47:07;9.13;;;7.63;;
74821;SDS011;63353;48.702;8.884;2023-04-06T14:49:40;10.93;;;9.00;;
74821;SDS011;63353;48.702;8.884;2023-04-06T14:52:18;13.43;;;10.63;;
74821;SDS011;63353;48.702;8.884;2023-04-06T14:54:59;11.20;;;10.00;;
74821;SDS011;63353;48.702;8.884;2023-04-06T14:57:31;14.33;;;12.93;;
74821;SDS011;63353;48.702;8.884;2023-04-06T15:00:02;11.70;;;10.23;;
74821;SDS011;63353;48.702;8.884;2023-04-06T15:02:34;25.97;;;20.00;;
74821;SDS011;63353;48.702;8.884;2023-04-06T15:05:00;9.10;;;8.10;;
74821;SDS011;63353;48.702;8.884;2023-04-06T15:07:35;14.10;;;11.60;;
74821;SDS011;63353;48.702;8.884;2023-04-06T15:10:10;17.63;;;13.67;;
74821;SDS011;63353;48.702;8.884;2023-04-06T15:12:35;11.27;;;9.60;;